sensor_id;sensor_type;location;lat;lon;timestamp;temperature;humidity
11532;DHT22;5822;51.000;5.874;2023-05-13T00:01:11;15.30;99.90
11532;DHT22;5822;51.000;5.874;2023-05-13T00:03:37;15.30;99.90
11532;DHT22;5822;51.000;5.874;2023-05-13T00:06:03;15.30;99.90
11532;DHT22;5822;51.000;5.874;2023-05-13T00:08:28;15.30;99.90
11532;DHT22;5822;51.000;5.874;2023-05-13T00:10:54;15.30;99.90
11532;DHT22;5822;51.000;5.874;2023-05-13T00:13:20;15.20;99.90
11532;DHT22;5822;51.000;5.874;2023-05-13T00:15:45;15.20;99.90
11532;DHT22;5822;51.000;5.874;2023-05-13T00:18:11;15.20;99.90
11532;DHT22;5822;51.000;5.874;2023-05-13T00:20:37;15.20;99.90
11532;DHT22;5822;51.000;5.874;2023-05-13T00:23:02;15.20;99.90
11532;DHT22;5822;51.000;5.874;2023-05-13T00:25:28;15.20;99.90
11532;DHT22;5822;51.000;5.874;2023-05-13T00:27:53;15.20;99.90
11532;DHT22;5822;51.000;5.874;2023-05-13T00:30:19;15.10;99.90
11532;DHT22;5822;51.000;5.874;2023-05-13T00:32:45;15.10;99.90
11532;DHT22;5822;51.000;5.874;2023-05-13T00:35:11;15.10;99.90
11532;DHT22;5822;51.000;5.874;2023-05-13T00:37:36;15.10;99.90
11532;DHT22;5822;51.000;5.874;2023-05-13T00:40:02;15.10;99.90
11532;DHT22;5822;51.000;5.874;2023-05-13T00:42:28;15.00;99.90
11532;DHT22;5822;51.000;5.874;2023-05-13T00:44:54;15.00;99.90
11532;DHT22;5822;51.000;5.874;2023-05-13T00:47:20;14.90;99.90
11532;DHT22;5822;51.000;5.874;2023-05-13T00:49:46;14.90;99.90
11532;DHT22;5822;51.000;5.874;2023-05-13T00:52:12;14.90;99.90
11532;DHT22;5822;51.000;5.874;2023-05-13T00:54:38;14.90;99.90
11532;DHT22;5822;51.000;5.874;2023-05-13T00:57:04;14.90;99.90
11532;DHT22;5822;51.000;5.874;2023-05-13T00:59:30;14.80;99.90
11532;DHT22;5822;51.000;5.874;2023-05-13T01:02:06;14.80;99.90
11532;DHT22;5822;51.000;5.874;2023-05-13T01:04:43;14.80;99.90
11532;DHT22;5822;51.000;5.874;2023-05-13T01:12:39;15.00;99.90
11532;DHT22;5822;51.000;5.874;2023-05-13T01:15:19;15.00;99.90
11532;DHT22;5822;51.000;5.874;2023-05-13T01:20:20;14.90;99.90
11532;DHT22;5822;51.000;5.874;2023-05-13T01:22:46;14.90;99.90
11532;DHT22;5822;51.000;5.874;2023-05-13T01:25:12;14.90;99.90
11532;DHT22;5822;51.000;5.874;2023-05-13T01:27:38;14.80;99.90
11532;DHT22;5822;51.000;5.874;2023-05-13T01:30:05;14.80;99.90
11532;DHT22;5822;51.000;5.874;2023-05-13T01:32:32;14.80;99.90
11532;DHT22;5822;51.000;5.874;2023-05-13T01:34:58;14.80;99.90
11532;DHT22;5822;51.000;5.874;2023-05-13T01:37:25;14.70;99.90
11532;DHT22;5822;51.000;5.874;2023-05-13T01:39:52;14.70;99.90
11532;DHT22;5822;51.000;5.874;2023-05-13T01:42:17;14.60;99.90
11532;DHT22;5822;51.000;5.874;2023-05-13T01:44:43;14.60;99.90
11532;DHT22;5822;51.000;5.874;2023-05-13T01:47:09;14.60;99.90
11532;DHT22;5822;51.000;5.874;2023-05-13T01:49:34;14.60;99.90
11532;DHT22;5822;51.000;5.874;2023-05-13T01:52:00;14.60;99.90
11532;DHT22;5822;51.000;5.874;2023-05-13T01:54:26;14.50;99.90
11532;DHT22;5822;51.000;5.874;2023-05-13T01:56:51;14.60;99.90
11532;DHT22;5822;51.000;5.874;2023-05-13T01:59:17;14.50;99.90
11532;DHT22;5822;51.000;5.874;2023-05-13T02:01:42;14.50;99.90
11532;DHT22;5822;51.000;5.874;2023-05-13T02:04:10;14.40;99.90
11532;DHT22;5822;51.000;5.874;2023-05-13T02:06:36;14.50;99.90
11532;DHT22;5822;51.000;5.874;2023-05-13T02:09:01;14.60;99.90
11532;DHT22;5822;51.000;5.874;2023-05-13T02:11:27;14.70;99.90
11532;DHT22;5822;51.000;5.874;2023-05-13T02:13:52;14.70;99.90
11532;DHT22;5822;51.000;5.874;2023-05-13T02:16:19;14.60;99.90
11532;DHT22;5822;51.000;5.874;2023-05-13T02:18:44;14.40;99.90
11532;DHT22;5822;51.000;5.874;2023-05-13T02:21:10;14.40;99.90
11532;DHT22;5822;51.000;5.874;2023-05-13T02:23:36;14.40;99.90
11532;DHT22;5822;51.000;5.874;2023-05-13T02:26:01;14.30;99.90
11532;DHT22;5822;51.000;5.874;2023-05-13T02:28:28;14.40;99.90
11532;DHT22;5822;51.000;5.874;2023-05-13T02:30:53;14.50;99.90
11532;DHT22;5822;51.000;5.874;2023-05-13T02:33:19;14.60;99.90
11532;DHT22;5822;51.000;5.874;2023-05-13T02:35:45;14.70;99.90
11532;DHT22;5822;51.000;5.874;2023-05-13T02:38:10;14.50;99.90
11532;DHT22;5822;51.000;5.874;2023-05-13T02:40:36;14.50;99.90
11532;DHT22;5822;51.000;5.874;2023-05-13T02:43:02;14.40;99.90
11532;DHT22;5822;51.000;5.874;2023-05-13T02:45:28;14.40;99.90
11532;DHT22;5822;51.000;5.874;2023-05-13T02:47:54;14.40;99.90
11532;DHT22;5822;51.000;5.874;2023-05-13T02:50:20;14.30;99.90
11532;DHT22;5822;51.000;5.874;2023-05-13T02:52:46;14.30;99.90
11532;DHT22;5822;51.000;5.874;2023-05-13T02:55:11;14.30;99.90
11532;DHT22;5822;51.000;5.874;2023-05-13T02:57:37;14.30;99.90
11532;DHT22;5822;51.000;5.874;2023-05-13T03:00:04;14.20;99.90
11532;DHT22;5822;51.000;5.874;2023-05-13T03:02:31;14.20;99.90
11532;DHT22;5822;51.000;5.874;2023-05-13T03:04:57;14.20;99.90
11532;DHT22;5822;51.000;5.874;2023-05-13T03:07:23;14.10;99.90
11532;DHT22;5822;51.000;5.874;2023-05-13T03:09:49;14.10;99.90
11532;DHT22;5822;51.000;5.874;2023-05-13T03:12:15;14.20;99.90
11532;DHT22;5822;51.000;5.874;2023-05-13T03:14:41;14.10;99.90
11532;DHT22;5822;51.000;5.874;2023-05-13T03:17:09;14.20;99.90
11532;DHT22;5822;51.000;5.874;2023-05-13T03:19:38;14.20;99.90
11532;DHT22;5822;51.000;5.874;2023-05-13T03:22:05;14.20;99.90
11532;DHT22;5822;51.000;5.874;2023-05-13T03:24:30;14.20;99.90
11532;DHT22;5822;51.000;5.874;2023-05-13T03:26:59;14.30;99.90
11532;DHT22;5822;51.000;5.874;2023-05-13T03:29:25;14.20;99.90
11532;DHT22;5822;51.000;5.874;2023-05-13T03:31:52;14.30;99.90
11532;DHT22;5822;51.000;5.874;2023-05-13T03:34:17;14.20;99.90
11532;DHT22;5822;51.000;5.874;2023-05-13T03:36:43;14.20;99.90
11532;DHT22;5822;51.000;5.874;2023-05-13T03:39:09;14.20;99.90
11532;DHT22;5822;51.000;5.874;2023-05-13T03:41:35;14.20;99.90
11532;DHT22;5822;51.000;5.874;2023-05-13T03:44:01;14.20;99.90
11532;DHT22;5822;51.000;5.874;2023-05-13T03:46:27;14.20;99.90
11532;DHT22;5822;51.000;5.874;2023-05-13T03:48:53;14.10;99.90
11532;DHT22;5822;51.000;5.874;2023-05-13T03:51:23;14.00;99.90
11532;DHT22;5822;51.000;5.874;2023-05-13T03:53:48;14.00;99.90
11532;DHT22;5822;51.000;5.874;2023-05-13T03:56:14;14.10;99.90
11532;DHT22;5822;51.000;5.874;2023-05-13T03:58:40;14.10;99.90
11532;DHT22;5822;51.000;5.874;2023-05-13T04:01:06;14.10;99.90
11532;DHT22;5822;51.000;5.874;2023-05-13T04:03:32;14.10;99.90
11532;DHT22;5822;51.000;5.874;2023-05-13T04:05:59;14.10;99.90
11532;DHT22;5822;51.000;5.874;2023-05-13T04:08:24;14.10;99.90
11532;DHT22;5822;51.000;5.874;2023-05-13T04:10:50;14.10;99.90
11532;DHT22;5822;51.000;5.874;2023-05-13T04:13:16;14.20;99.90
11532;DHT22;5822;51.000;5.874;2023-05-13T04:15:42;14.40;99.90
11532;DHT22;5822;51.000;5.874;2023-05-13T04:18:08;14.30;99.90
11532;DHT22;5822;51.000;5.874;2023-05-13T04:20:36;14.30;99.90
11532;DHT22;5822;51.000;5.874;2023-05-13T04:23:02;14.20;99.90
11532;DHT22;5822;51.000;5.874;2023-05-13T04:25:28;14.10;99.90
11532;DHT22;5822;51.000;5.874;2023-05-13T04:27:54;14.20;99.90
11532;DHT22;5822;51.000;5.874;2023-05-13T04:30:19;14.30;99.90
11532;DHT22;5822;51.000;5.874;2023-05-13T04:32:45;14.30;99.90
11532;DHT22;5822;51.000;5.874;2023-05-13T04:35:11;14.30;99.90
11532;DHT22;5822;51.000;5.874;2023-05-13T04:37:36;14.30;99.90
11532;DHT22;5822;51.000;5.874;2023-05-13T04:40:03;14.30;99.90
11532;DHT22;5822;51.000;5.874;2023-05-13T04:42:28;14.30;99.90
11532;DHT22;5822;51.000;5.874;2023-05-13T04:44:54;14.40;99.90
11532;DHT22;5822;51.000;5.874;2023-05-13T04:47:20;14.50;99.90
11532;DHT22;5822;51.000;5.874;2023-05-13T04:49:45;14.50;99.90
11532;DHT22;5822;51.000;5.874;2023-05-13T04:52:11;14.50;99.90
11532;DHT22;5822;51.000;5.874;2023-05-13T04:54:38;14.40;99.90
11532;DHT22;5822;51.000;5.874;2023-05-13T04:57:04;14.40;99.90
11532;DHT22;5822;51.000;5.874;2023-05-13T04:59:30;14.40;99.90
11532;DHT22;5822;51.000;5.874;2023-05-13T05:01:56;14.40;99.90
11532;DHT22;5822;51.000;5.874;2023-05-13T05:04:21;14.50;99.90
11532;DHT22;5822;51.000;5.874;2023-05-13T05:06:47;14.60;99.90
11532;DHT22;5822;51.000;5.874;2023-05-13T05:09:13;14.50;99.90
11532;DHT22;5822;51.000;5.874;2023-05-13T05:11:39;14.50;99.90
11532;DHT22;5822;51.000;5.874;2023-05-13T05:14:04;14.40;99.90
11532;DHT22;5822;51.000;5.874;2023-05-13T05:16:30;14.50;99.90
11532;DHT22;5822;51.000;5.874;2023-05-13T05:18:56;14.50;99.90
11532;DHT22;5822;51.000;5.874;2023-05-13T05:21:22;14.60;99.90
11532;DHT22;5822;51.000;5.874;2023-05-13T05:23:48;14.70;99.90
11532;DHT22;5822;51.000;5.874;2023-05-13T05:26:13;14.70;99.90
11532;DHT22;5822;51.000;5.874;2023-05-13T05:28:41;14.80;99.90
11532;DHT22;5822;51.000;5.874;2023-05-13T05:31:07;14.80;99.90
11532;DHT22;5822;51.000;5.874;2023-05-13T05:33:34;14.90;99.90
11532;DHT22;5822;51.000;5.874;2023-05-13T05:36:00;14.90;99.90
11532;DHT22;5822;51.000;5.874;2023-05-13T05:38:26;14.90;99.90
11532;DHT22;5822;51.000;5.874;2023-05-13T05:40:52;14.90;99.90
11532;DHT22;5822;51.000;5.874;2023-05-13T05:43:18;14.90;99.90
11532;DHT22;5822;51.000;5.874;2023-05-13T05:45:44;14.90;99.90
11532;DHT22;5822;51.000;5.874;2023-05-13T05:48:10;14.90;99.90
11532;DHT22;5822;51.000;5.874;2023-05-13T05:50:35;15.00;99.90
11532;DHT22;5822;51.000;5.874;2023-05-13T05:53:02;14.90;99.90
11532;DHT22;5822;51.000;5.874;2023-05-13T05:55:27;15.00;99.90
11532;DHT22;5822;51.000;5.874;2023-05-13T05:57:54;15.00;99.90
11532;DHT22;5822;51.000;5.874;2023-05-13T06:00:20;15.00;99.90
11532;DHT22;5822;51.000;5.874;2023-05-13T06:02:46;15.00;99.90
11532;DHT22;5822;51.000;5.874;2023-05-13T06:05:13;15.10;99.90
11532;DHT22;5822;51.000;5.874;2023-05-13T06:07:39;15.10;99.90
11532;DHT22;5822;51.000;5.874;2023-05-13T06:10:05;15.20;99.90
11532;DHT22;5822;51.000;5.874;2023-05-13T06:12:31;15.10;99.90
11532;DHT22;5822;51.000;5.874;2023-05-13T06:14:57;15.20;99.90
11532;DHT22;5822;51.000;5.874;2023-05-13T06:17:23;15.20;99.90
11532;DHT22;5822;51.000;5.874;2023-05-13T06:19:49;15.30;99.90
11532;DHT22;5822;51.000;5.874;2023-05-13T06:22:14;15.30;99.90
11532;DHT22;5822;51.000;5.874;2023-05-13T06:24:40;15.30;99.90
11532;DHT22;5822;51.000;5.874;2023-05-13T06:27:09;15.30;99.90
11532;DHT22;5822;51.000;5.874;2023-05-13T06:29:36;15.30;99.90
11532;DHT22;5822;51.000;5.874;2023-05-13T06:32:02;15.30;99.90
11532;DHT22;5822;51.000;5.874;2023-05-13T06:34:27;15.30;99.90
11532;DHT22;5822;51.000;5.874;2023-05-13T06:36:53;15.40;99.90
11532;DHT22;5822;51.000;5.874;2023-05-13T06:39:19;15.40;99.90
11532;DHT22;5822;51.000;5.874;2023-05-13T06:41:44;15.40;99.90
11532;DHT22;5822;51.000;5.874;2023-05-13T06:44:10;15.50;99.90
11532;DHT22;5822;51.000;5.874;2023-05-13T06:46:36;15.50;99.90
11532;DHT22;5822;51.000;5.874;2023-05-13T06:49:01;15.50;99.90
11532;DHT22;5822;51.000;5.874;2023-05-13T06:51:27;15.50;99.90
11532;DHT22;5822;51.000;5.874;2023-05-13T06:53:54;15.60;99.90
11532;DHT22;5822;51.000;5.874;2023-05-13T06:56:20;15.60;99.90
11532;DHT22;5822;51.000;5.874;2023-05-13T06:58:49;15.60;99.90
11532;DHT22;5822;51.000;5.874;2023-05-13T07:01:15;15.70;99.90
11532;DHT22;5822;51.000;5.874;2023-05-13T07:03:42;15.70;99.90
11532;DHT22;5822;51.000;5.874;2023-05-13T07:06:08;15.70;99.90
11532;DHT22;5822;51.000;5.874;2023-05-13T07:08:33;15.80;99.90
11532;DHT22;5822;51.000;5.874;2023-05-13T07:10:59;15.80;99.90
11532;DHT22;5822;51.000;5.874;2023-05-13T07:13:24;15.80;99.90
11532;DHT22;5822;51.000;5.874;2023-05-13T07:15:50;15.80;99.90
11532;DHT22;5822;51.000;5.874;2023-05-13T07:18:16;15.90;99.90
11532;DHT22;5822;51.000;5.874;2023-05-13T07:20:42;15.90;99.90
11532;DHT22;5822;51.000;5.874;2023-05-13T07:23:08;15.90;99.90
11532;DHT22;5822;51.000;5.874;2023-05-13T07:25:34;16.00;99.90
11532;DHT22;5822;51.000;5.874;2023-05-13T07:27:59;16.00;99.90
11532;DHT22;5822;51.000;5.874;2023-05-13T07:30:25;16.00;99.90
11532;DHT22;5822;51.000;5.874;2023-05-13T07:32:51;16.10;99.90
11532;DHT22;5822;51.000;5.874;2023-05-13T07:35:17;16.20;99.90
11532;DHT22;5822;51.000;5.874;2023-05-13T07:37:45;16.20;99.90
11532;DHT22;5822;51.000;5.874;2023-05-13T07:40:12;16.20;99.90
11532;DHT22;5822;51.000;5.874;2023-05-13T07:42:39;16.20;99.90
11532;DHT22;5822;51.000;5.874;2023-05-13T07:45:08;16.20;99.90
11532;DHT22;5822;51.000;5.874;2023-05-13T07:47:34;16.20;99.90
11532;DHT22;5822;51.000;5.874;2023-05-13T07:50:00;16.30;99.90
11532;DHT22;5822;51.000;5.874;2023-05-13T07:52:26;16.30;99.90
11532;DHT22;5822;51.000;5.874;2023-05-13T07:54:51;16.40;99.90
11532;DHT22;5822;51.000;5.874;2023-05-13T07:57:17;16.40;99.90
11532;DHT22;5822;51.000;5.874;2023-05-13T07:59:43;16.40;99.90
11532;DHT22;5822;51.000;5.874;2023-05-13T08:02:08;16.50;99.90
11532;DHT22;5822;51.000;5.874;2023-05-13T08:04:34;16.50;99.90
11532;DHT22;5822;51.000;5.874;2023-05-13T08:07:00;16.50;99.90
11532;DHT22;5822;51.000;5.874;2023-05-13T08:09:26;16.50;99.90
11532;DHT22;5822;51.000;5.874;2023-05-13T08:11:51;16.60;99.90
11532;DHT22;5822;51.000;5.874;2023-05-13T08:14:18;16.60;99.90
11532;DHT22;5822;51.000;5.874;2023-05-13T08:16:44;16.60;99.90
11532;DHT22;5822;51.000;5.874;2023-05-13T08:19:10;16.70;99.90
11532;DHT22;5822;51.000;5.874;2023-05-13T08:21:35;16.60;99.90
11532;DHT22;5822;51.000;5.874;2023-05-13T08:24:01;16.70;99.90
11532;DHT22;5822;51.000;5.874;2023-05-13T08:26:27;16.70;99.90
11532;DHT22;5822;51.000;5.874;2023-05-13T08:28:53;16.70;99.90
11532;DHT22;5822;51.000;5.874;2023-05-13T08:31:18;16.70;99.90
11532;DHT22;5822;51.000;5.874;2023-05-13T08:33:44;16.80;99.90
11532;DHT22;5822;51.000;5.874;2023-05-13T08:36:13;16.80;99.90
11532;DHT22;5822;51.000;5.874;2023-05-13T08:38:38;16.90;99.90
11532;DHT22;5822;51.000;5.874;2023-05-13T08:41:04;16.90;99.90
11532;DHT22;5822;51.000;5.874;2023-05-13T08:43:33;16.90;99.90
11532;DHT22;5822;51.000;5.874;2023-05-13T08:46:02;16.90;99.90
11532;DHT22;5822;51.000;5.874;2023-05-13T08:48:29;17.00;99.90
11532;DHT22;5822;51.000;5.874;2023-05-13T08:50:56;17.00;99.90
11532;DHT22;5822;51.000;5.874;2023-05-13T08:53:24;17.00;99.90
11532;DHT22;5822;51.000;5.874;2023-05-13T08:55:51;17.00;99.90
11532;DHT22;5822;51.000;5.874;2023-05-13T08:58:17;17.00;99.90
11532;DHT22;5822;51.000;5.874;2023-05-13T09:00:43;17.00;99.90
11532;DHT22;5822;51.000;5.874;2023-05-13T09:03:08;17.00;99.90
11532;DHT22;5822;51.000;5.874;2023-05-13T09:05:35;17.10;99.90
11532;DHT22;5822;51.000;5.874;2023-05-13T09:08:07;17.10;99.90
11532;DHT22;5822;51.000;5.874;2023-05-13T09:10:36;17.10;99.90
11532;DHT22;5822;51.000;5.874;2023-05-13T09:13:02;17.20;99.90
11532;DHT22;5822;51.000;5.874;2023-05-13T09:15:28;17.20;99.90
11532;DHT22;5822;51.000;5.874;2023-05-13T09:18:02;17.20;99.90
11532;DHT22;5822;51.000;5.874;2023-05-13T09:20:29;17.20;99.90
11532;DHT22;5822;51.000;5.874;2023-05-13T09:23:09;17.30;99.90
11532;DHT22;5822;51.000;5.874;2023-05-13T09:25:38;17.30;99.90
11532;DHT22;5822;51.000;5.874;2023-05-13T09:28:05;17.30;99.90
11532;DHT22;5822;51.000;5.874;2023-05-13T09:30:36;17.40;99.90
11532;DHT22;5822;51.000;5.874;2023-05-13T09:33:17;17.40;99.90
11532;DHT22;5822;51.000;5.874;2023-05-13T09:35:51;17.40;99.90
11532;DHT22;5822;51.000;5.874;2023-05-13T09:38:19;17.40;99.90
11532;DHT22;5822;51.000;5.874;2023-05-13T09:43:15;17.50;99.90
11532;DHT22;5822;51.000;5.874;2023-05-13T09:45:41;17.50;99.90
11532;DHT22;5822;51.000;5.874;2023-05-13T09:48:07;17.50;99.90
11532;DHT22;5822;51.000;5.874;2023-05-13T09:50:33;17.60;99.90
11532;DHT22;5822;51.000;5.874;2023-05-13T09:53:09;17.60;99.90
11532;DHT22;5822;51.000;5.874;2023-05-13T09:55:36;17.50;99.90
11532;DHT22;5822;51.000;5.874;2023-05-13T09:58:08;17.60;99.90
11532;DHT22;5822;51.000;5.874;2023-05-13T10:00:34;17.60;99.90
11532;DHT22;5822;51.000;5.874;2023-05-13T10:03:02;17.60;99.90
11532;DHT22;5822;51.000;5.874;2023-05-13T10:05:29;17.60;99.90
11532;DHT22;5822;51.000;5.874;2023-05-13T10:07:56;17.60;99.90
11532;DHT22;5822;51.000;5.874;2023-05-13T10:10:22;17.70;99.90
11532;DHT22;5822;51.000;5.874;2023-05-13T10:12:49;17.70;99.90
11532;DHT22;5822;51.000;5.874;2023-05-13T10:15:16;17.80;99.90
11532;DHT22;5822;51.000;5.874;2023-05-13T10:17:41;17.80;99.90
11532;DHT22;5822;51.000;5.874;2023-05-13T10:20:09;17.80;99.90
11532;DHT22;5822;51.000;5.874;2023-05-13T10:22:35;17.90;99.90
11532;DHT22;5822;51.000;5.874;2023-05-13T10:25:02;17.90;99.90
11532;DHT22;5822;51.000;5.874;2023-05-13T10:27:31;17.90;99.90
11532;DHT22;5822;51.000;5.874;2023-05-13T10:29:59;17.90;99.90
11532;DHT22;5822;51.000;5.874;2023-05-13T10:32:27;17.90;99.90
11532;DHT22;5822;51.000;5.874;2023-05-13T10:35:13;17.80;99.90
11532;DHT22;5822;51.000;5.874;2023-05-13T10:43:22;17.90;99.90
11532;DHT22;5822;51.000;5.874;2023-05-13T10:46:04;17.90;99.90
11532;DHT22;5822;51.000;5.874;2023-05-13T10:48:48;17.90;99.90
11532;DHT22;5822;51.000;5.874;2023-05-13T10:51:16;17.80;99.90
11532;DHT22;5822;51.000;5.874;2023-05-13T10:53:55;17.80;99.90
11532;DHT22;5822;51.000;5.874;2023-05-13T10:56:24;17.90;99.90
11532;DHT22;5822;51.000;5.874;2023-05-13T11:01:28;18.00;99.90
11532;DHT22;5822;51.000;5.874;2023-05-13T11:03:57;18.00;99.90
11532;DHT22;5822;51.000;5.874;2023-05-13T11:08:53;18.00;99.90
11532;DHT22;5822;51.000;5.874;2023-05-13T11:13:52;18.10;99.90
11532;DHT22;5822;51.000;5.874;2023-05-13T11:16:19;18.10;99.90
11532;DHT22;5822;51.000;5.874;2023-05-13T11:18:45;18.00;99.90
11532;DHT22;5822;51.000;5.874;2023-05-13T11:21:11;18.00;99.90
11532;DHT22;5822;51.000;5.874;2023-05-13T11:24:03;18.00;99.90
11532;DHT22;5822;51.000;5.874;2023-05-13T11:26:54;18.10;99.90
11532;DHT22;5822;51.000;5.874;2023-05-13T11:31:54;18.10;99.90
11532;DHT22;5822;51.000;5.874;2023-05-13T11:34:22;18.10;99.90
11532;DHT22;5822;51.000;5.874;2023-05-13T11:36:55;18.20;99.90
11532;DHT22;5822;51.000;5.874;2023-05-13T11:39:22;18.20;99.90
11532;DHT22;5822;51.000;5.874;2023-05-13T11:41:51;18.30;99.90
11532;DHT22;5822;51.000;5.874;2023-05-13T11:44:20;18.30;99.90
11532;DHT22;5822;51.000;5.874;2023-05-13T11:47:02;18.30;99.90
11532;DHT22;5822;51.000;5.874;2023-05-13T11:52:10;18.30;99.90
11532;DHT22;5822;51.000;5.874;2023-05-13T11:54:56;18.30;99.90
11532;DHT22;5822;51.000;5.874;2023-05-13T11:57:29;18.40;99.90
11532;DHT22;5822;51.000;5.874;2023-05-13T12:00:07;18.30;99.90
11532;DHT22;5822;51.000;5.874;2023-05-13T12:02:38;18.40;99.90
11532;DHT22;5822;51.000;5.874;2023-05-13T12:05:06;18.40;99.90
11532;DHT22;5822;51.000;5.874;2023-05-13T12:07:33;18.40;99.90
11532;DHT22;5822;51.000;5.874;2023-05-13T12:10:01;18.40;99.90
11532;DHT22;5822;51.000;5.874;2023-05-13T12:12:29;18.40;99.90
11532;DHT22;5822;51.000;5.874;2023-05-13T12:14:58;18.40;99.90
11532;DHT22;5822;51.000;5.874;2023-05-13T12:17:24;18.40;99.90
11532;DHT22;5822;51.000;5.874;2023-05-13T12:20:10;18.60;99.90
11532;DHT22;5822;51.000;5.874;2023-05-13T12:28:18;18.90;99.90
11532;DHT22;5822;51.000;5.874;2023-05-13T12:31:03;18.80;99.90
11532;DHT22;5822;51.000;5.874;2023-05-13T12:33:40;18.70;99.90
11532;DHT22;5822;51.000;5.874;2023-05-13T12:36:25;18.70;99.90
11532;DHT22;5822;51.000;5.874;2023-05-13T12:39:05;18.80;99.90
11532;DHT22;5822;51.000;5.874;2023-05-13T12:41:32;18.80;99.90
11532;DHT22;5822;51.000;5.874;2023-05-13T12:44:01;18.70;99.90
11532;DHT22;5822;51.000;5.874;2023-05-13T12:46:27;18.80;99.90
11532;DHT22;5822;51.000;5.874;2023-05-13T12:48:57;18.80;99.90
11532;DHT22;5822;51.000;5.874;2023-05-13T12:51:24;18.80;99.90
11532;DHT22;5822;51.000;5.874;2023-05-13T12:53:50;18.90;99.90
11532;DHT22;5822;51.000;5.874;2023-05-13T12:56:19;18.90;99.90
11532;DHT22;5822;51.000;5.874;2023-05-13T12:58:45;19.00;99.90
11532;DHT22;5822;51.000;5.874;2023-05-13T13:01:11;19.00;99.90
11532;DHT22;5822;51.000;5.874;2023-05-13T13:03:37;19.00;99.90
11532;DHT22;5822;51.000;5.874;2023-05-13T13:06:02;19.10;99.90
11532;DHT22;5822;51.000;5.874;2023-05-13T13:08:28;19.10;99.90
11532;DHT22;5822;51.000;5.874;2023-05-13T13:10:55;19.00;99.90
11532;DHT22;5822;51.000;5.874;2023-05-13T13:13:21;19.10;99.90
11532;DHT22;5822;51.000;5.874;2023-05-13T13:15:46;19.20;99.90
11532;DHT22;5822;51.000;5.874;2023-05-13T13:18:12;19.10;99.90
11532;DHT22;5822;51.000;5.874;2023-05-13T13:20:38;19.20;99.90
11532;DHT22;5822;51.000;5.874;2023-05-13T13:23:03;19.20;99.90
11532;DHT22;5822;51.000;5.874;2023-05-13T13:25:29;19.30;99.90
11532;DHT22;5822;51.000;5.874;2023-05-13T13:27:55;19.30;99.90
11532;DHT22;5822;51.000;5.874;2023-05-13T13:30:20;19.20;99.90
11532;DHT22;5822;51.000;5.874;2023-05-13T13:32:46;19.20;99.90
11532;DHT22;5822;51.000;5.874;2023-05-13T13:35:11;19.20;99.90
11532;DHT22;5822;51.000;5.874;2023-05-13T13:37:37;19.20;99.90
11532;DHT22;5822;51.000;5.874;2023-05-13T13:40:04;19.40;99.90
11532;DHT22;5822;51.000;5.874;2023-05-13T13:42:29;19.40;99.90
11532;DHT22;5822;51.000;5.874;2023-05-13T13:44:55;19.40;99.90
11532;DHT22;5822;51.000;5.874;2023-05-13T13:47:21;19.30;99.90
11532;DHT22;5822;51.000;5.874;2023-05-13T13:49:47;19.30;99.90
11532;DHT22;5822;51.000;5.874;2023-05-13T13:52:13;19.30;99.90
11532;DHT22;5822;51.000;5.874;2023-05-13T13:54:38;19.10;99.90
11532;DHT22;5822;51.000;5.874;2023-05-13T13:57:04;19.10;99.90
11532;DHT22;5822;51.000;5.874;2023-05-13T13:59:30;19.20;99.90
11532;DHT22;5822;51.000;5.874;2023-05-13T14:01:56;19.30;99.90
11532;DHT22;5822;51.000;5.874;2023-05-13T14:04:21;19.20;99.90
11532;DHT22;5822;51.000;5.874;2023-05-13T14:06:48;19.20;99.90
11532;DHT22;5822;51.000;5.874;2023-05-13T14:09:14;19.20;99.90
11532;DHT22;5822;51.000;5.874;2023-05-13T14:11:40;19.10;99.90
11532;DHT22;5822;51.000;5.874;2023-05-13T14:14:06;19.00;99.90
11532;DHT22;5822;51.000;5.874;2023-05-13T14:16:32;19.00;99.90
11532;DHT22;5822;51.000;5.874;2023-05-13T14:18:58;19.10;99.90
11532;DHT22;5822;51.000;5.874;2023-05-13T14:21:24;19.00;99.90
11532;DHT22;5822;51.000;5.874;2023-05-13T14:23:49;19.00;99.90
11532;DHT22;5822;51.000;5.874;2023-05-13T14:26:15;19.10;99.90
11532;DHT22;5822;51.000;5.874;2023-05-13T14:28:44;19.30;99.90
11532;DHT22;5822;51.000;5.874;2023-05-13T14:31:10;19.40;99.90
11532;DHT22;5822;51.000;5.874;2023-05-13T14:33:36;19.40;99.90
11532;DHT22;5822;51.000;5.874;2023-05-13T14:36:01;19.40;99.90
11532;DHT22;5822;51.000;5.874;2023-05-13T14:38:27;19.50;99.90
11532;DHT22;5822;51.000;5.874;2023-05-13T14:40:53;19.40;99.90
11532;DHT22;5822;51.000;5.874;2023-05-13T14:43:21;19.30;99.90
11532;DHT22;5822;51.000;5.874;2023-05-13T14:45:46;19.20;99.90
11532;DHT22;5822;51.000;5.874;2023-05-13T14:48:12;19.10;99.90
11532;DHT22;5822;51.000;5.874;2023-05-13T14:50:38;19.10;99.90
11532;DHT22;5822;51.000;5.874;2023-05-13T14:53:04;19.00;99.90
11532;DHT22;5822;51.000;5.874;2023-05-13T14:55:30;19.00;99.90
11532;DHT22;5822;51.000;5.874;2023-05-13T14:57:55;19.00;99.90
11532;DHT22;5822;51.000;5.874;2023-05-13T15:00:21;19.00;99.90
11532;DHT22;5822;51.000;5.874;2023-05-13T15:02:47;19.00;99.90
11532;DHT22;5822;51.000;5.874;2023-05-13T15:05:12;19.00;99.90
11532;DHT22;5822;51.000;5.874;2023-05-13T15:07:38;19.00;99.90
11532;DHT22;5822;51.000;5.874;2023-05-13T15:10:04;19.00;99.90
11532;DHT22;5822;51.000;5.874;2023-05-13T15:12:30;19.00;99.90
11532;DHT22;5822;51.000;5.874;2023-05-13T15:14:56;18.90;99.90
11532;DHT22;5822;51.000;5.874;2023-05-13T15:17:22;18.90;99.90
11532;DHT22;5822;51.000;5.874;2023-05-13T15:19:48;18.90;99.90
11532;DHT22;5822;51.000;5.874;2023-05-13T15:22:13;18.90;99.90
11532;DHT22;5822;51.000;5.874;2023-05-13T15:24:41;18.80;99.90
11532;DHT22;5822;51.000;5.874;2023-05-13T15:27:07;18.90;99.90
11532;DHT22;5822;51.000;5.874;2023-05-13T15:29:33;18.90;99.90
11532;DHT22;5822;51.000;5.874;2023-05-13T15:31:59;18.90;99.90
11532;DHT22;5822;51.000;5.874;2023-05-13T15:34:25;18.90;99.90
11532;DHT22;5822;51.000;5.874;2023-05-13T15:36:50;18.90;99.90
11532;DHT22;5822;51.000;5.874;2023-05-13T15:39:16;18.90;99.90
11532;DHT22;5822;51.000;5.874;2023-05-13T15:41:42;19.00;99.90
11532;DHT22;5822;51.000;5.874;2023-05-13T15:44:07;18.90;99.90
11532;DHT22;5822;51.000;5.874;2023-05-13T15:46:33;19.00;99.90
11532;DHT22;5822;51.000;5.874;2023-05-13T15:48:59;19.00;99.90
11532;DHT22;5822;51.000;5.874;2023-05-13T15:51:25;19.00;99.90
11532;DHT22;5822;51.000;5.874;2023-05-13T15:53:51;19.10;99.90
11532;DHT22;5822;51.000;5.874;2023-05-13T15:56:18;19.10;99.90
11532;DHT22;5822;51.000;5.874;2023-05-13T15:58:43;19.10;99.90
11532;DHT22;5822;51.000;5.874;2023-05-13T16:01:09;19.10;99.90
11532;DHT22;5822;51.000;5.874;2023-05-13T16:03:35;19.10;99.90
11532;DHT22;5822;51.000;5.874;2023-05-13T16:06:01;19.20;99.90
11532;DHT22;5822;51.000;5.874;2023-05-13T16:08:26;19.20;99.90
11532;DHT22;5822;51.000;5.874;2023-05-13T16:10:52;19.40;99.90
11532;DHT22;5822;51.000;5.874;2023-05-13T16:13:18;19.50;99.90
11532;DHT22;5822;51.000;5.874;2023-05-13T16:15:44;19.50;99.90
11532;DHT22;5822;51.000;5.874;2023-05-13T16:18:10;19.50;99.90